Huvudsida
METAR-TAF:

METAR-TAF

Flygplatser :

Roskildes flygplats

Roskilde, Danmark

latitud: 55-35N, longitud: 012-08E, höjd: 44 m

Aktuellt väderrapport

Denna rapport gjordes för 17 minuter sedan, klockan 00:20 UTC
Vind 9 kt från syd
Temperatur 7°C
Fuktighet 81%
Tryck 1005 hPa
Sikt 10 km eller mer

METAR: EKRK 190020Z AUTO 17009KT 9999 OVC015/// 07/04 Q1005

Tid: 01:37 (00:37 UTC)

Väderprognos

Denna rapport gjordes för 1 timme och 16 minuter sedan, klockan 23:21 UTC
Prognos gäller från 19 kl. 00 UTC till 19 kl. 09 UTC
Vind 10 kt från syd
Sikt: 6000 m
Brutna moln på en höjd av 1500 ft
Temporärt
från 19 kl. 00 UTC till 19 kl. 02 UTC
Brutna moln på en höjd av 1200 ft
Blir
från 19 kl. 05 UTC till 19 kl. 07 UTC
Brutna moln på en höjd av 1200 ft

TAF: EKRK 182321Z 1900/1909 17010KT 6000 BKN015 TEMPO 1900/1902 BKN012 BECMG 1905/1907 BKN012

Aktuella väderrapporter och prognoser från 4000 flygplatser (METAR- och TAF-rapporter).

De tillgängliga stationerna syns som gula och röda prickar på kartan.

För musen över prickarna för att se namnen på stationerna.

Klicka sedan för att få väderrapporter och prognoser.

För att ändra kartan: Klicka på de gröna knapparna med ett svart kors på för att zooma in; den gröna knappen med ett streck på för att zooma ut; eller på de gröna pilarna för angränsande kartor.


METAR-TAF: